createdAt,value
2023-01-22T00:03:24.666Z,4.70
2023-01-22T00:08:31.370Z,4.03
2023-01-22T00:13:40.753Z,3.85
2023-01-22T00:18:52.251Z,2.67
2023-01-22T00:24:05.579Z,2.95
2023-01-22T00:29:16.594Z,3.88
2023-01-22T00:34:37.907Z,2.55
2023-01-22T00:39:44.209Z,2.63
2023-01-22T00:44:57.321Z,2.75
2023-01-22T00:50:13.576Z,2.67
2023-01-22T00:55:35.833Z,2.78
2023-01-22T01:00:48.179Z,2.60
2023-01-22T01:06:06.300Z,2.03
2023-01-22T01:11:24.578Z,1.83
2023-01-22T01:16:42.915Z,2.00
2023-01-22T01:21:55.209Z,1.90
2023-01-22T01:27:05.324Z,2.10
2023-01-22T01:32:20.492Z,2.00
2023-01-22T01:37:27.680Z,1.80
2023-01-22T01:42:37.920Z,1.88
2023-01-22T01:47:44.140Z,2.10
2023-01-22T01:52:51.336Z,1.65
2023-01-22T01:57:58.702Z,1.98
2023-01-22T02:03:11.136Z,2.05
2023-01-22T02:08:24.971Z,1.80
2023-01-22T02:13:36.210Z,1.52
2023-01-22T02:18:46.418Z,1.70
2023-01-22T02:23:59.645Z,1.80
2023-01-22T02:29:08.836Z,1.50
2023-01-22T02:34:19.382Z,1.50
2023-01-22T02:39:43.148Z,2.10
2023-01-22T02:44:57.151Z,1.90
2023-01-22T02:50:04.745Z,1.95
2023-01-22T02:55:21.978Z,1.48
2023-01-22T03:00:34.323Z,1.70
2023-01-22T03:05:43.463Z,1.83
2023-01-22T03:10:54.820Z,1.70
2023-01-22T03:16:19.009Z,1.52
2023-01-22T03:21:27.209Z,1.40
2023-01-22T03:26:37.447Z,1.73
2023-01-22T03:31:49.760Z,1.92
2023-01-22T03:37:17.932Z,1.80
2023-01-22T03:42:31.798Z,1.20
2023-01-22T03:47:36.377Z,1.30
2023-01-22T03:52:45.576Z,0.98
2023-01-22T03:57:54.692Z,1.05
2023-01-22T04:02:58.954Z,1.02
2023-01-22T04:08:08.053Z,0.60
2023-01-22T04:13:15.414Z,0.68
2023-01-22T04:18:21.643Z,0.57
2023-01-22T04:23:29.845Z,0.50
2023-01-22T04:28:37.001Z,0.52
2023-01-22T04:33:44.213Z,0.40
2023-01-22T04:38:50.392Z,0.35
2023-01-22T04:44:00.646Z,0.40
2023-01-22T04:49:05.824Z,0.30
2023-01-22T04:54:10.050Z,0.25
2023-01-22T04:59:21.302Z,0.37
2023-01-22T05:04:27.264Z,0.30
2023-01-22T05:09:33.687Z,0.57
2023-01-22T05:14:42.779Z,0.30
2023-01-22T05:19:46.985Z,0.52
2023-01-22T05:24:53.175Z,0.50
2023-01-22T05:30:05.396Z,0.45
2023-01-22T05:35:10.621Z,0.40
2023-01-22T05:40:15.158Z,0.47
2023-01-22T05:45:22.977Z,0.37
2023-01-22T05:50:27.202Z,0.30
2023-01-22T05:55:32.367Z,0.43
2023-01-22T06:05:42.785Z,0.40
2023-01-22T06:10:46.967Z,0.50
2023-01-22T06:15:58.217Z,0.47
2023-01-22T06:21:03.424Z,0.30
2023-01-22T06:31:17.626Z,0.77
2023-01-22T06:36:21.970Z,0.52
2023-01-22T06:41:29.179Z,0.47
2023-01-22T06:46:40.425Z,0.52
2023-01-22T06:51:49.837Z,0.57
2023-01-22T06:56:56.689Z,0.73
2023-01-22T07:02:07.015Z,0.60
2023-01-22T07:07:11.272Z,0.93
2023-01-22T07:12:16.400Z,0.70
2023-01-22T07:22:27.779Z,0.82
2023-01-22T07:27:32.967Z,0.63
2023-01-22T07:32:39.182Z,0.80
2023-01-22T07:37:43.362Z,0.73
2023-01-22T07:48:27.832Z,0.80
2023-01-22T07:53:32.075Z,0.93
2023-01-22T07:58:36.284Z,1.00
2023-01-22T08:03:50.513Z,0.60
2023-01-22T08:08:54.314Z,0.63
2023-01-22T08:13:59.029Z,0.90
2023-01-22T08:19:09.090Z,0.70
2023-01-22T08:24:14.394Z,0.88
2023-01-22T08:29:31.069Z,0.80
2023-01-22T08:34:43.024Z,0.80
2023-01-22T08:39:49.039Z,0.75
2023-01-22T08:44:53.116Z,0.95
2023-01-22T08:49:59.308Z,1.10
2023-01-22T08:55:21.413Z,1.00
2023-01-22T09:00:49.266Z,0.85
2023-01-22T09:12:56.288Z,0.80
2023-01-22T09:25:50.328Z,1.30
2023-01-22T09:31:30.114Z,1.20
2023-01-22T09:37:16.005Z,1.20
2023-01-22T10:08:09.570Z,1.00
2023-01-22T10:32:04.912Z,1.05
2023-01-22T11:54:09.104Z,1.52
2023-01-22T11:59:32.891Z,1.10
2023-01-22T12:05:06.218Z,1.20
2023-01-22T12:10:42.518Z,1.25
2023-01-22T12:16:05.571Z,1.30
2023-01-22T12:21:25.909Z,1.70
2023-01-22T12:26:46.613Z,1.77
2023-01-22T12:32:01.527Z,0.93
2023-01-22T12:37:08.672Z,0.70
2023-01-22T12:42:28.932Z,1.00
2023-01-22T12:47:43.161Z,1.00
2023-01-22T12:52:48.951Z,1.10
2023-01-22T12:58:01.914Z,0.82
2023-01-22T13:03:33.454Z,1.00
2023-01-22T13:08:42.152Z,1.00
2023-01-22T13:13:58.563Z,0.90
2023-01-22T13:19:22.577Z,1.00
2023-01-22T13:24:27.773Z,0.90
2023-01-22T13:29:34.952Z,1.10
2023-01-22T13:34:38.336Z,0.70
2023-01-22T13:39:41.604Z,0.60
2023-01-22T13:44:51.600Z,0.80
2023-01-22T13:49:55.407Z,0.77
2023-01-22T13:55:06.003Z,0.90
2023-01-22T14:00:29.378Z,0.80
2023-01-22T14:05:35.555Z,0.80
2023-01-22T14:10:41.781Z,0.70
2023-01-22T14:15:58.924Z,0.80
2023-01-22T14:21:03.126Z,0.88
2023-01-22T14:26:09.276Z,0.90
2023-01-22T14:31:27.583Z,0.73
2023-01-22T14:36:31.780Z,0.70
2023-01-22T14:41:35.215Z,0.85
2023-01-22T14:46:44.140Z,0.77
2023-01-22T14:51:48.445Z,1.02
2023-01-22T14:56:59.688Z,0.80
2023-01-22T15:02:06.808Z,0.80
2023-01-22T15:13:47.618Z,0.90
2023-01-22T15:42:41.185Z,0.90
2023-01-22T15:47:45.637Z,0.85
2023-01-22T15:52:53.829Z,0.75
2023-01-22T16:17:01.812Z,0.95
2023-01-22T16:28:13.115Z,1.10
2023-01-22T16:39:06.661Z,1.00
2023-01-22T16:44:22.562Z,1.20
2023-01-22T16:49:43.129Z,0.90
2023-01-22T16:55:01.696Z,1.25
2023-01-22T17:00:18.987Z,1.00
2023-01-22T17:05:22.431Z,1.30
2023-01-22T17:10:25.548Z,0.90
2023-01-22T17:15:30.537Z,1.13
2023-01-22T17:25:40.717Z,2.05
2023-01-22T17:30:45.396Z,2.65
2023-01-22T17:35:48.953Z,3.20
2023-01-22T17:40:52.257Z,7.47
2023-01-22T17:45:56.908Z,4.10
2023-01-22T17:51:04.872Z,3.83
2023-01-22T17:56:10.389Z,4.85
2023-01-22T18:01:16.473Z,5.40
2023-01-22T18:06:20.581Z,4.95
2023-01-22T18:11:28.020Z,5.60
2023-01-22T18:16:36.489Z,3.83
2023-01-22T18:21:40.670Z,4.45
2023-01-22T18:26:44.165Z,4.00
2023-01-22T18:31:48.757Z,4.13
2023-01-22T18:36:51.996Z,4.25
2023-01-22T18:41:55.635Z,4.97
2023-01-22T18:47:01.888Z,4.57
2023-01-22T18:52:05.194Z,4.45
2023-01-22T18:57:08.364Z,4.55
2023-01-22T19:02:16.347Z,3.92
2023-01-22T19:07:19.553Z,4.25
2023-01-22T19:12:22.729Z,4.25
2023-01-22T19:17:27.372Z,4.47
2023-01-22T19:22:30.734Z,4.03
2023-01-22T19:27:34.551Z,4.00
2023-01-22T19:32:39.394Z,3.65
2023-01-22T19:37:42.663Z,3.90
2023-01-22T19:42:47.024Z,4.82
2023-01-22T19:47:51.675Z,4.50
2023-01-22T19:52:54.846Z,4.50
2023-01-22T19:57:58.233Z,4.70
2023-01-22T20:03:06.841Z,4.63
2023-01-22T20:08:11.239Z,5.20
2023-01-22T20:13:14.731Z,4.57
2023-01-22T20:18:19.801Z,4.70
2023-01-22T20:23:23.303Z,4.30
2023-01-22T20:28:26.556Z,5.28
2023-01-22T20:33:31.494Z,4.80
2023-01-22T20:38:35.603Z,5.80
2023-01-22T20:43:40.454Z,6.18
2023-01-22T20:48:46.033Z,6.30
2023-01-22T20:53:50.822Z,6.32
2023-01-22T20:58:57.426Z,6.40
2023-01-22T21:04:02.931Z,5.18
2023-01-22T21:09:07.752Z,5.68
2023-01-22T21:14:16.052Z,5.50
2023-01-22T21:19:23.795Z,5.47
2023-01-22T21:24:27.467Z,5.97
2023-01-22T21:29:30.665Z,6.50
2023-01-22T21:34:36.520Z,6.28
2023-01-22T21:39:45.125Z,5.82
2023-01-22T21:45:05.891Z,5.78
2023-01-22T21:50:12.083Z,6.00
2023-01-22T21:55:15.858Z,5.53
2023-01-22T22:00:20.389Z,5.85
2023-01-22T22:05:25.396Z,6.07
2023-01-22T22:10:28.658Z,6.32
2023-01-22T22:15:31.903Z,6.43
2023-01-22T22:20:37.589Z,6.40
2023-01-22T22:25:40.838Z,6.80
2023-01-22T22:30:44.105Z,6.68
2023-01-22T22:35:49.160Z,5.93
2023-01-22T22:41:03.881Z,6.35
2023-01-22T22:46:09.308Z,9.33
2023-01-22T22:51:15.930Z,7.55
2023-01-22T22:56:19.201Z,8.23
2023-01-22T23:01:25.215Z,6.63
2023-01-22T23:06:32.743Z,6.43
2023-01-22T23:11:36.731Z,6.13
2023-01-22T23:16:41.631Z,6.50
2023-01-22T23:21:46.703Z,7.35
2023-01-22T23:26:50.797Z,6.50
2023-01-22T23:31:54.308Z,6.40
2023-01-22T23:36:59.018Z,6.55
2023-01-22T23:42:02.162Z,5.93
2023-01-22T23:47:05.549Z,6.20
2023-01-22T23:52:10.211Z,6.82
2023-01-22T23:57:13.410Z,6.43
